Time;durP1;ratioP1;P1;durP2;ratioP2;P2;SDS_P1;SDS_P2;PMS_P1;PMS_P2;Temp;Humidity;BMP_temperature;BMP_pressure;BME280_temperature;BME280_humidity;BME280_pressure;Samples;Min_cycle;Max_cycle;Signal;HPM_P1;HPM_P2
2022/07/17 00:00:16;;;;;;;6.22;4.35;;;;;;;;;;5076895;28;20028;-72
2022/07/17 00:02:42;;;;;;;4.55;3.65;;;;;;;;;;5077703;28;20159;-71
2022/07/17 00:05:08;;;;;;;4.07;3.40;;;;;;;;;;5077579;28;20024;-72
2022/07/17 00:07:34;;;;;;;8.55;4.20;;;;;;;;;;5087084;28;20024;-73
2022/07/17 00:10:00;;;;;;;6.50;4.25;;;;;;;;;;5078587;28;20481;-72
2022/07/17 00:12:27;;;;;;;5.93;4.03;;;;;;;;;;5088850;28;20106;-73
2022/07/17 00:14:53;;;;;;;7.00;4.03;;;;;;;;;;5091737;28;20031;-73
2022/07/17 00:17:21;;;;;;;5.45;4.60;;;;;;;;;;5077845;28;20024;-73
2022/07/17 00:19:47;;;;;;;10.02;4.43;;;;;;;;;;5082148;28;20020;-72
2022/07/17 00:22:13;;;;;;;8.50;4.25;;;;;;;;;;5087723;28;20028;-72
2022/07/17 00:24:39;;;;;;;6.00;4.28;;;;;;;;;;5077257;28;20033;-73
2022/07/17 00:27:05;;;;;;;7.38;4.63;;;;;;;;;;5074740;28;20026;-71
2022/07/17 00:29:31;;;;;;;8.10;4.57;;;;;;;;;;5074168;28;20029;-73
2022/07/17 00:31:57;;;;;;;6.38;4.45;;;;;;;;;;5077626;28;20092;-72
2022/07/17 00:34:23;;;;;;;9.63;4.40;;;;;;;;;;5082093;28;20032;-73
2022/07/17 00:36:50;;;;;;;7.00;4.43;;;;;;;;;;5075697;28;20363;-72
2022/07/17 00:39:16;;;;;;;6.63;5.00;;;;;;;;;;5089324;28;20028;-73
2022/07/17 00:41:44;;;;;;;6.50;4.55;;;;;;;;;;5078540;28;20024;-73
2022/07/17 00:44:11;;;;;;;5.65;4.13;;;;;;;;;;5098300;28;20049;-73
2022/07/17 00:46:38;;;;;;;8.23;4.60;;;;;;;;;;5090293;28;20032;-72
2022/07/17 00:49:05;;;;;;;7.22;4.60;;;;;;;;;;5094473;28;20031;-72
2022/07/17 00:51:31;;;;;;;7.15;4.80;;;;;;;;;;5090281;28;20131;-73
2022/07/17 00:53:58;;;;;;;7.85;4.85;;;;;;;;;;5096295;28;20050;-72
2022/07/17 00:56:25;;;;;;;7.18;4.90;;;;;;;;;;5104190;28;20027;-73
2022/07/17 00:58:51;;;;;;;7.95;4.50;;;;;;;;;;5086514;28;20086;-74
2022/07/17 01:01:18;;;;;;;10.55;4.75;;;;;;;;;;5081592;28;20035;-72
2022/07/17 01:03:44;;;;;;;11.13;5.25;;;;;;;;;;5085618;28;20067;-72
2022/07/17 01:06:10;;;;;;;6.13;4.57;;;;;;;;;;5091842;28;20386;-73
2022/07/17 01:08:37;;;;;;;7.95;5.13;;;;;;;;;;5083605;28;20225;-72
2022/07/17 01:11:04;;;;;;;10.32;4.80;;;;;;;;;;5084110;28;20017;-72
2022/07/17 01:13:31;;;;;;;7.63;4.65;;;;;;;;;;5089330;28;20036;-73
2022/07/17 01:15:57;;;;;;;8.32;4.53;;;;;;;;;;5080236;28;20033;-73
2022/07/17 01:18:23;;;;;;;7.47;4.85;;;;;;;;;;5081966;28;20556;-73
2022/07/17 01:20:50;;;;;;;6.97;4.90;;;;;;;;;;5090479;28;20089;-74
2022/07/17 01:23:17;;;;;;;8.60;4.88;;;;;;;;;;5082467;28;20036;-73
2022/07/17 01:25:43;;;;;;;7.82;4.88;;;;;;;;;;5092077;28;20043;-73
2022/07/17 01:28:10;;;;;;;5.85;4.55;;;;;;;;;;5104136;28;20035;-72
2022/07/17 01:30:36;;;;;;;10.10;5.07;;;;;;;;;;5086083;28;20020;-73
2022/07/17 01:33:02;;;;;;;11.52;4.80;;;;;;;;;;5094913;28;20036;-73
2022/07/17 01:35:28;;;;;;;6.93;4.90;;;;;;;;;;5080664;28;20480;-72
2022/07/17 01:37:54;;;;;;;11.90;5.20;;;;;;;;;;5093559;28;20036;-72
2022/07/17 01:40:20;;;;;;;7.43;4.30;;;;;;;;;;5090175;28;20385;-73
2022/07/17 01:42:48;;;;;;;6.43;4.32;;;;;;;;;;5087550;28;20028;-73
2022/07/17 01:45:14;;;;;;;7.88;4.28;;;;;;;;;;5074797;28;20048;-73
2022/07/17 01:47:41;;;;;;;10.73;3.97;;;;;;;;;;5081196;28;20028;-72
2022/07/17 01:50:07;;;;;;;7.30;3.60;;;;;;;;;;5089238;28;20035;-71
2022/07/17 01:52:35;;;;;;;6.63;4.25;;;;;;;;;;5092545;28;20045;-72
2022/07/17 01:55:01;;;;;;;7.78;4.00;;;;;;;;;;5077295;28;20074;-73
2022/07/17 01:57:27;;;;;;;7.50;4.07;;;;;;;;;;5077577;28;20078;-72
2022/07/17 01:59:53;;;;;;;6.97;3.92;;;;;;;;;;5078543;28;20108;-73
2022/07/17 02:02:19;;;;;;;5.70;3.90;;;;;;;;;;5079174;28;20024;-72
2022/07/17 02:04:46;;;;;;;6.43;3.92;;;;;;;;;;5075433;28;20029;-72
2022/07/17 02:07:12;;;;;;;6.32;3.90;;;;;;;;;;5074371;28;20074;-72
2022/07/17 02:09:38;;;;;;;8.93;3.83;;;;;;;;;;5090198;28;20028;-73
2022/07/17 02:12:04;;;;;;;5.32;3.60;;;;;;;;;;5080481;28;20459;-73
2022/07/17 02:14:31;;;;;;;7.18;4.03;;;;;;;;;;5092259;28;20503;-72
2022/07/17 02:16:57;;;;;;;7.10;3.75;;;;;;;;;;5088830;28;20040;-72
2022/07/17 02:19:23;;;;;;;8.52;3.60;;;;;;;;;;5094880;28;20032;-72
2022/07/17 02:21:49;;;;;;;6.03;3.72;;;;;;;;;;5088857;28;20384;-73
2022/07/17 02:24:15;;;;;;;7.47;3.95;;;;;;;;;;5082112;28;20060;-72
2022/07/17 02:26:41;;;;;;;6.32;3.50;;;;;;;;;;5073701;28;20339;-72
2022/07/17 02:29:07;;;;;;;6.50;3.40;;;;;;;;;;5074034;28;20017;-72
2022/07/17 02:31:33;;;;;;;5.60;4.00;;;;;;;;;;5090652;28;20141;-73
2022/07/17 02:33:59;;;;;;;7.38;3.65;;;;;;;;;;5082003;28;20043;-72
2022/07/17 02:36:26;;;;;;;8.77;3.97;;;;;;;;;;5081959;28;20028;-73
2022/07/17 02:38:52;;;;;;;5.60;3.53;;;;;;;;;;5079833;28;20025;-71
2022/07/17 02:41:18;;;;;;;7.68;3.67;;;;;;;;;;5082301;28;20034;-72
2022/07/17 02:43:44;;;;;;;5.30;3.40;;;;;;;;;;5076229;28;20028;-72
2022/07/17 02:46:10;;;;;;;4.90;3.13;;;;;;;;;;5084185;28;20099;-73
2022/07/17 02:48:36;;;;;;;6.60;3.28;;;;;;;;;;5073508;28;20024;-73
2022/07/17 02:51:02;;;;;;;4.43;3.13;;;;;;;;;;5085802;28;20119;-73
2022/07/17 02:53:28;;;;;;;5.28;3.40;;;;;;;;;;5089024;28;20033;-73
2022/07/17 02:55:54;;;;;;;6.53;3.25;;;;;;;;;;5089167;28;20028;-73
2022/07/17 02:58:20;;;;;;;5.30;3.70;;;;;;;;;;5090864;28;20469;-72
2022/07/17 03:00:47;;;;;;;7.45;3.22;;;;;;;;;;5077117;28;20035;-72
2022/07/17 03:03:13;;;;;;;5.63;3.20;;;;;;;;;;5100245;28;20027;-72
2022/07/17 03:05:39;;;;;;;4.20;3.20;;;;;;;;;;5092347;28;20150;-73
2022/07/17 03:08:05;;;;;;;4.55;2.97;;;;;;;;;;5090476;28;20040;-73
2022/07/17 03:10:31;;;;;;;5.00;3.03;;;;;;;;;;5080041;28;20549;-72
2022/07/17 03:12:57;;;;;;;9.23;3.00;;;;;;;;;;5079993;28;20043;-73
2022/07/17 03:15:23;;;;;;;5.43;3.00;;;;;;;;;;5077402;28;20020;-71
2022/07/17 03:17:49;;;;;;;6.20;3.20;;;;;;;;;;5084438;28;20028;-71
2022/07/17 03:20:15;;;;;;;5.50;3.00;;;;;;;;;;5081336;28;20023;-72
2022/07/17 03:22:41;;;;;;;4.63;3.00;;;;;;;;;;5086158;28;20036;-72
2022/07/17 03:25:08;;;;;;;4.90;3.00;;;;;;;;;;5080572;28;20158;-73
2022/07/17 03:27:34;;;;;;;5.40;3.00;;;;;;;;;;5078908;28;20024;-72
2022/07/17 03:30:00;;;;;;;4.97;3.00;;;;;;;;;;5073398;28;20035;-73
2022/07/17 03:32:26;;;;;;;4.32;2.90;;;;;;;;;;5079927;28;20603;-73
2022/07/17 03:34:52;;;;;;;6.45;3.20;;;;;;;;;;5076188;28;20060;-73
2022/07/17 03:37:18;;;;;;;5.47;2.97;;;;;;;;;;5080513;28;20031;-73
2022/07/17 03:39:44;;;;;;;7.10;3.20;;;;;;;;;;5083908;28;20071;-72
2022/07/17 03:42:10;;;;;;;5.28;3.33;;;;;;;;;;5072582;28;20461;-72
2022/07/17 03:44:36;;;;;;;6.43;2.88;;;;;;;;;;5075594;28;20404;-72
2022/07/17 03:47:02;;;;;;;5.68;3.28;;;;;;;;;;5081127;28;20514;-73
2022/07/17 03:49:28;;;;;;;5.80;3.00;;;;;;;;;;5074904;28;20461;-72
2022/07/17 03:51:54;;;;;;;6.25;2.85;;;;;;;;;;5081110;28;20406;-72
2022/07/17 03:54:20;;;;;;;4.57;2.90;;;;;;;;;;5072441;28;20473;-72
2022/07/17 03:56:46;;;;;;;6.43;3.28;;;;;;;;;;5094263;28;20499;-73
2022/07/17 03:59:12;;;;;;;3.25;2.70;;;;;;;;;;5088181;28;20034;-72
2022/07/17 04:01:38;;;;;;;5.53;3.05;;;;;;;;;;5073092;28;20073;-71
2022/07/17 04:04:04;;;;;;;4.32;3.00;;;;;;;;;;5072267;28;20027;-73
2022/07/17 04:06:31;;;;;;;6.38;2.88;;;;;;;;;;5086841;28;20023;-71
2022/07/17 04:08:57;;;;;;;4.47;2.70;;;;;;;;;;5075498;28;20047;-72
2022/07/17 04:11:23;;;;;;;3.58;2.75;;;;;;;;;;5081864;28;20529;-72
2022/07/17 04:13:49;;;;;;;5.65;2.92;;;;;;;;;;5075836;28;20040;-72
2022/07/17 04:16:15;;;;;;;6.22;2.90;;;;;;;;;;5079209;28;20376;-71
2022/07/17 04:18:41;;;;;;;5.30;3.08;;;;;;;;;;5087513;28;20484;-72
2022/07/17 04:21:09;;;;;;;4.13;2.58;;;;;;;;;;5085281;28;20029;-72
2022/07/17 04:23:35;;;;;;;6.03;2.58;;;;;;;;;;5073702;28;20076;-72
2022/07/17 04:26:02;;;;;;;10.45;3.35;;;;;;;;;;5078616;28;20021;-72
2022/07/17 04:28:28;;;;;;;4.18;2.72;;;;;;;;;;5084481;28;20028;-72
2022/07/17 04:30:54;;;;;;;4.53;2.75;;;;;;;;;;5082637;28;20020;-72
2022/07/17 04:33:20;;;;;;;4.50;2.58;;;;;;;;;;5091614;28;20097;-72
2022/07/17 04:35:46;;;;;;;3.30;2.50;;;;;;;;;;5082065;28;20473;-72
2022/07/17 04:38:12;;;;;;;4.13;2.60;;;;;;;;;;5080758;28;20033;-72
2022/07/17 04:40:38;;;;;;;5.00;2.60;;;;;;;;;;5095617;28;20039;-71
2022/07/17 04:43:05;;;;;;;4.50;2.90;;;;;;;;;;5079259;28;20393;-70
2022/07/17 04:45:31;;;;;;;7.55;3.13;;;;;;;;;;5078559;28;20032;-78
2022/07/17 04:47:57;;;;;;;6.93;2.90;;;;;;;;;;5078688;28;20020;-68
2022/07/17 04:50:23;;;;;;;5.47;2.55;;;;;;;;;;5081485;28;20028;-74
2022/07/17 04:52:49;;;;;;;4.47;2.95;;;;;;;;;;5087898;28;20329;-72
2022/07/17 04:55:16;;;;;;;5.75;2.72;;;;;;;;;;5080291;28;20386;-77
2022/07/17 04:57:42;;;;;;;4.47;2.42;;;;;;;;;;5079395;28;20457;-73
2022/07/17 05:00:09;;;;;;;4.95;2.40;;;;;;;;;;5076630;28;20027;-73
2022/07/17 05:02:35;;;;;;;4.45;2.67;;;;;;;;;;5090913;28;20028;-73
2022/07/17 05:05:02;;;;;;;6.68;2.90;;;;;;;;;;5079319;28;20026;-75
2022/07/17 05:07:28;;;;;;;5.40;2.53;;;;;;;;;;5071536;28;20462;-72
2022/07/17 05:09:54;;;;;;;4.82;2.28;;;;;;;;;;5071782;28;20108;-69
2022/07/17 05:12:20;;;;;;;4.03;2.50;;;;;;;;;;5087291;28;20485;-71
2022/07/17 05:14:46;;;;;;;4.53;2.55;;;;;;;;;;5088120;28;20090;-70
2022/07/17 05:17:12;;;;;;;7.85;2.75;;;;;;;;;;5085182;28;20382;-71
2022/07/17 05:19:39;;;;;;;5.68;2.90;;;;;;;;;;5074464;28;20416;-71
2022/07/17 05:22:05;;;;;;;4.25;2.80;;;;;;;;;;5096362;28;20016;-70
2022/07/17 05:24:33;;;;;;;3.40;2.30;;;;;;;;;;5096652;28;20035;-71
2022/07/17 05:26:59;;;;;;;4.05;2.90;;;;;;;;;;5100441;28;20024;-69
2022/07/17 05:29:25;;;;;;;7.80;2.70;;;;;;;;;;5074684;28;20036;-71
2022/07/17 05:31:51;;;;;;;4.18;2.97;;;;;;;;;;5074864;28;20162;-70
2022/07/17 05:34:17;;;;;;;3.53;2.90;;;;;;;;;;5105287;28;20039;-71
2022/07/17 05:36:44;;;;;;;6.05;2.92;;;;;;;;;;5083103;28;20390;-71
2022/07/17 05:39:10;;;;;;;6.95;2.90;;;;;;;;;;5077076;28;20377;-71
2022/07/17 05:41:36;;;;;;;4.38;2.85;;;;;;;;;;5090247;28;20113;-73
2022/07/17 05:44:02;;;;;;;5.68;2.92;;;;;;;;;;5094814;28;20024;-73
2022/07/17 05:46:28;;;;;;;12.38;3.30;;;;;;;;;;5095827;28;20465;-71
2022/07/17 05:48:55;;;;;;;10.15;3.22;;;;;;;;;;5086720;28;20038;-72
2022/07/17 05:51:21;;;;;;;5.28;3.17;;;;;;;;;;5081685;28;20049;-74
2022/07/17 05:53:47;;;;;;;3.45;3.05;;;;;;;;;;5080307;28;20055;-73
2022/07/17 05:56:13;;;;;;;3.92;3.10;;;;;;;;;;5085603;28;20020;-69
2022/07/17 05:58:39;;;;;;;4.55;3.00;;;;;;;;;;5083590;28;20385;-71
2022/07/17 06:01:05;;;;;;;6.13;3.28;;;;;;;;;;5075458;28;20020;-69
2022/07/17 06:03:31;;;;;;;7.55;3.28;;;;;;;;;;5078625;28;20102;-75
2022/07/17 06:05:57;;;;;;;7.22;3.30;;;;;;;;;;5082930;28;20056;-73
2022/07/17 06:08:23;;;;;;;6.28;3.05;;;;;;;;;;5081255;28;20409;-68
2022/07/17 06:10:49;;;;;;;5.18;3.63;;;;;;;;;;5076353;28;20028;-73
2022/07/17 06:13:15;;;;;;;6.68;2.92;;;;;;;;;;5089735;28;20082;-71
2022/07/17 06:15:42;;;;;;;8.75;2.90;;;;;;;;;;5085757;28;20020;-73
2022/07/17 06:18:08;;;;;;;5.53;3.30;;;;;;;;;;5088155;28;20031;-76
2022/07/17 06:20:34;;;;;;;5.22;3.10;;;;;;;;;;5080261;28;20031;-74
2022/07/17 06:23:00;;;;;;;3.85;3.00;;;;;;;;;;5081881;28;20036;-81
2022/07/17 06:25:26;;;;;;;4.60;3.35;;;;;;;;;;5084731;28;20032;-78
2022/07/17 06:27:52;;;;;;;5.18;3.10;;;;;;;;;;5080777;28;20035;-75
2022/07/17 06:30:18;;;;;;;3.83;2.60;;;;;;;;;;5094419;28;20031;-74
2022/07/17 06:32:44;;;;;;;10.10;3.42;;;;;;;;;;5073278;28;20082;-72
2022/07/17 06:35:10;;;;;;;7.57;2.92;;;;;;;;;;5080720;28;20107;-69
2022/07/17 06:37:37;;;;;;;5.07;2.88;;;;;;;;;;5082230;28;20052;-77
2022/07/17 06:40:03;;;;;;;7.10;3.38;;;;;;;;;;5072942;28;20039;-78
2022/07/17 06:42:29;;;;;;;5.05;3.15;;;;;;;;;;5088304;28;20024;-80
2022/07/17 06:44:56;;;;;;;7.18;3.40;;;;;;;;;;5080154;28;20455;-78
2022/07/17 06:47:22;;;;;;;5.95;3.30;;;;;;;;;;5080808;28;20031;-76
2022/07/17 06:49:48;;;;;;;6.60;3.65;;;;;;;;;;5079940;28;20024;-76
2022/07/17 06:52:14;;;;;;;6.38;3.30;;;;;;;;;;5081645;28;20032;-76
2022/07/17 06:54:40;;;;;;;3.80;3.00;;;;;;;;;;5086188;28;20044;-74
2022/07/17 06:57:07;;;;;;;6.45;3.42;;;;;;;;;;5075268;28;20023;-82
2022/07/17 06:59:33;;;;;;;5.97;3.42;;;;;;;;;;5096057;28;20080;-77
2022/07/17 07:01:59;;;;;;;3.75;3.22;;;;;;;;;;5084077;28;20454;-88
2022/07/17 07:04:25;;;;;;;4.13;3.10;;;;;;;;;;5072751;28;20024;-77
2022/07/17 07:06:51;;;;;;;6.03;3.33;;;;;;;;;;5074833;28;20025;-78
2022/07/17 07:09:18;;;;;;;7.80;2.95;;;;;;;;;;5077732;28;20036;-76
2022/07/17 07:11:44;;;;;;;4.53;2.95;;;;;;;;;;5079768;28;20024;-77
2022/07/17 07:14:10;;;;;;;4.93;3.13;;;;;;;;;;5076111;28;20524;-74
2022/07/17 07:16:36;;;;;;;19.15;5.50;;;;;;;;;;5083621;28;20050;-74
2022/07/17 07:19:02;;;;;;;5.75;3.20;;;;;;;;;;5084857;28;20020;-78
2022/07/17 07:21:29;;;;;;;4.20;3.05;;;;;;;;;;5087412;28;20111;-77
2022/07/17 07:23:55;;;;;;;2.90;2.30;;;;;;;;;;5073465;28;20029;-77
2022/07/17 07:26:21;;;;;;;5.82;3.28;;;;;;;;;;5079309;28;20012;-79
2022/07/17 07:28:47;;;;;;;3.60;2.40;;;;;;;;;;5084876;28;20050;-74
2022/07/17 07:31:14;;;;;;;4.18;2.47;;;;;;;;;;5080264;28;20032;-77
2022/07/17 07:33:40;;;;;;;7.25;2.50;;;;;;;;;;5081557;28;20039;-77
2022/07/17 07:36:06;;;;;;;4.15;2.15;;;;;;;;;;5083352;28;20435;-74
2022/07/17 07:38:33;;;;;;;4.20;2.40;;;;;;;;;;5076609;28;20032;-76
2022/07/17 07:40:59;;;;;;;3.25;2.25;;;;;;;;;;5078946;28;20500;-75
2022/07/17 07:43:26;;;;;;;3.88;2.35;;;;;;;;;;5078966;28;20028;-72
2022/07/17 07:45:52;;;;;;;5.40;2.50;;;;;;;;;;5076996;28;20124;-77
2022/07/17 07:48:18;;;;;;;4.43;2.70;;;;;;;;;;5082598;28;20092;-73
2022/07/17 07:50:44;;;;;;;5.30;2.97;;;;;;;;;;5085285;28;20020;-74
2022/07/17 07:53:10;;;;;;;4.53;3.13;;;;;;;;;;5091138;28;20128;-78
2022/07/17 07:55:36;;;;;;;5.10;3.13;;;;;;;;;;5084850;28;20012;-78
2022/07/17 07:58:07;;;;;;;4.88;2.42;;;;;;;;;;5087300;28;20035;-76
2022/07/17 08:00:33;;;;;;;11.75;2.40;;;;;;;;;;5085793;28;20087;-77
2022/07/17 08:02:59;;;;;;;5.05;2.22;;;;;;;;;;5084842;28;20036;-73
2022/07/17 08:05:25;;;;;;;5.10;2.20;;;;;;;;;;5075132;28;20035;-74
2022/07/17 08:07:52;;;;;;;5.15;2.30;;;;;;;;;;5083740;28;20099;-74
2022/07/17 08:10:18;;;;;;;2.90;2.30;;;;;;;;;;5081468;28;20028;-73
2022/07/17 08:12:44;;;;;;;3.00;2.40;;;;;;;;;;5085290;28;20029;-74
2022/07/17 08:15:10;;;;;;;6.00;2.22;;;;;;;;;;5086741;28;20099;-75
2022/07/17 08:17:36;;;;;;;3.00;2.33;;;;;;;;;;5082939;28;20391;-74
2022/07/17 08:20:03;;;;;;;5.20;2.47;;;;;;;;;;5085121;28;20489;-77
2022/07/17 08:22:29;;;;;;;7.05;3.15;;;;;;;;;;5089182;28;20088;-75
2022/07/17 08:24:55;;;;;;;5.97;2.40;;;;;;;;;;5085011;28;20032;-77
2022/07/17 08:27:22;;;;;;;5.07;2.20;;;;;;;;;;5094050;28;20289;-77
2022/07/17 08:29:48;;;;;;;5.57;2.35;;;;;;;;;;5091621;28;20119;-76
2022/07/17 08:32:14;;;;;;;6.75;2.40;;;;;;;;;;5082896;28;20024;-79
2022/07/17 08:34:40;;;;;;;4.88;2.38;;;;;;;;;;5080122;28;20478;-78
2022/07/17 08:37:06;;;;;;;9.40;2.70;;;;;;;;;;5090783;28;20025;-76
2022/07/17 08:39:32;;;;;;;5.28;2.30;;;;;;;;;;5073403;28;20034;-77
2022/07/17 08:41:58;;;;;;;6.28;2.50;;;;;;;;;;5085156;28;20024;-74
2022/07/17 08:44:24;;;;;;;5.90;2.75;;;;;;;;;;5070691;28;20037;-77
2022/07/17 08:46:51;;;;;;;4.30;2.28;;;;;;;;;;5087570;28;20030;-73
2022/07/17 08:49:21;;;;;;;5.57;2.20;;;;;;;;;;5085949;28;20042;-74
2022/07/17 08:51:47;;;;;;;6.68;2.30;;;;;;;;;;5090438;28;20115;-79
2022/07/17 08:54:14;;;;;;;11.10;2.88;;;;;;;;;;5098813;28;20040;-73
2022/07/17 08:56:40;;;;;;;3.47;2.30;;;;;;;;;;5088700;28;20028;-74
2022/07/17 08:59:06;;;;;;;10.90;2.60;;;;;;;;;;5089458;28;20085;-84
2022/07/17 09:01:32;;;;;;;8.52;2.78;;;;;;;;;;5090964;28;20043;-74
2022/07/17 09:04:06;;;;;;;6.85;2.22;;;;;;;;;;5100113;28;20424;-72
2022/07/17 09:06:35;;;;;;;9.95;2.20;;;;;;;;;;5083798;28;20553;-72
2022/07/17 09:09:19;;;;;;;12.00;2.58;;;;;;;;;;5084620;28;20110;-74
2022/07/17 09:11:46;;;;;;;5.88;2.55;;;;;;;;;;5093288;28;20080;-75
2022/07/17 09:14:12;;;;;;;6.22;2.47;;;;;;;;;;5081913;28;20028;-75
2022/07/17 09:16:48;;;;;;;25.02;3.83;;;;;;;;;;5078615;28;20323;-73
2022/07/17 09:19:24;;;;;;;7.80;2.20;;;;;;;;;;5078850;28;20057;-74
2022/07/17 09:21:51;;;;;;;2.75;2.10;;;;;;;;;;5084157;28;20024;-73
2022/07/17 09:24:17;;;;;;;10.00;2.38;;;;;;;;;;5080639;28;20103;-72
2022/07/17 09:26:46;;;;;;;8.73;2.50;;;;;;;;;;5076505;28;20024;-74
2022/07/17 09:29:12;;;;;;;20.60;3.25;;;;;;;;;;5076196;28;20024;-74
2022/07/17 09:31:38;;;;;;;19.45;3.88;;;;;;;;;;5090350;28;20027;-73
2022/07/17 09:34:05;;;;;;;3.47;2.03;;;;;;;;;;5081787;28;20040;-72
2022/07/17 09:36:31;;;;;;;3.65;2.30;;;;;;;;;;5087706;28;20028;-71
2022/07/17 09:38:58;;;;;;;10.73;2.42;;;;;;;;;;5078336;28;20031;-71
2022/07/17 09:41:25;;;;;;;16.73;3.08;;;;;;;;;;5079540;28;20021;-71
2022/07/17 09:43:57;;;;;;;7.28;2.58;;;;;;;;;;5091965;28;20034;-73
2022/07/17 09:46:34;;;;;;;5.47;2.40;;;;;;;;;;5078855;28;20024;-74
2022/07/17 09:49:04;;;;;;;4.72;2.25;;;;;;;;;;5090592;28;20051;-74
2022/07/17 09:51:36;;;;;;;9.60;2.50;;;;;;;;;;5086565;28;20095;-73
2022/07/17 09:54:03;;;;;;;14.00;3.67;;;;;;;;;;5075279;28;20032;-70
2022/07/17 09:56:30;;;;;;;5.28;2.80;;;;;;;;;;5087858;28;20012;-69
2022/07/17 09:59:00;;;;;;;7.55;3.17;;;;;;;;;;5075132;28;20036;-70
2022/07/17 10:01:27;;;;;;;11.25;3.30;;;;;;;;;;5075839;28;20036;-71
2022/07/17 10:03:53;;;;;;;7.63;2.78;;;;;;;;;;5099480;28;20027;-72
2022/07/17 10:06:20;;;;;;;7.43;2.67;;;;;;;;;;5092880;28;20028;-77
2022/07/17 10:08:46;;;;;;;6.47;2.40;;;;;;;;;;5075156;28;20032;-72
2022/07/17 10:11:15;;;;;;;3.90;2.30;;;;;;;;;;5079704;28;20084;-74
2022/07/17 10:13:42;;;;;;;6.40;2.40;;;;;;;;;;5081574;28;20456;-71
2022/07/17 10:16:08;;;;;;;5.90;2.53;;;;;;;;;;5085717;28;20012;-68
2022/07/17 10:18:54;;;;;;;6.95;2.60;;;;;;;;;;5084414;28;20374;-71
2022/07/17 10:21:21;;;;;;;3.97;2.20;;;;;;;;;;5080023;28;20024;-72
2022/07/17 10:23:49;;;;;;;4.93;2.10;;;;;;;;;;5077740;28;20111;-68
2022/07/17 10:26:15;;;;;;;9.60;2.40;;;;;;;;;;5086740;28;20027;-70
2022/07/17 10:28:41;;;;;;;3.17;2.03;;;;;;;;;;5085766;28;20024;-71
2022/07/17 10:31:07;;;;;;;2.53;2.17;;;;;;;;;;5077605;28;20024;-70
2022/07/17 10:33:33;;;;;;;6.03;2.55;;;;;;;;;;5076383;28;20039;-71
2022/07/17 10:35:59;;;;;;;4.32;2.30;;;;;;;;;;5082018;28;20363;-70
2022/07/17 10:38:27;;;;;;;4.68;2.28;;;;;;;;;;5084080;28;20888;-70
2022/07/17 10:41:03;;;;;;;3.28;2.03;;;;;;;;;;5082856;28;20445;-72
2022/07/17 10:43:44;;;;;;;10.50;2.38;;;;;;;;;;5081648;28;20016;-71
2022/07/17 10:46:10;;;;;;;8.38;2.63;;;;;;;;;;5082792;28;20024;-69
2022/07/17 10:48:36;;;;;;;5.20;2.50;;;;;;;;;;5083975;28;20016;-70
2022/07/17 10:51:02;;;;;;;3.67;2.25;;;;;;;;;;5093034;28;20525;-69
2022/07/17 10:53:29;;;;;;;5.03;2.30;;;;;;;;;;5085692;28;20037;-69
2022/07/17 10:55:57;;;;;;;5.32;2.60;;;;;;;;;;5084283;28;20108;-70
2022/07/17 10:58:27;;;;;;;4.10;2.10;;;;;;;;;;5083757;28;20046;-70
2022/07/17 11:01:13;;;;;;;2.42;2.03;;;;;;;;;;5094704;28;20043;-70
2022/07/17 11:03:47;;;;;;;7.38;2.38;;;;;;;;;;5088385;28;20522;-70
2022/07/17 11:06:23;;;;;;;2.25;1.90;;;;;;;;;;5076768;28;20090;-70
2022/07/17 11:08:58;;;;;;;4.68;2.42;;;;;;;;;;5079205;28;20029;-69
2022/07/17 11:11:35;;;;;;;10.02;3.05;;;;;;;;;;5087435;28;20478;-70
2022/07/17 11:14:20;;;;;;;9.45;2.80;;;;;;;;;;5089574;28;20044;-71
2022/07/17 11:16:48;;;;;;;4.07;2.10;;;;;;;;;;5091698;28;20398;-71
2022/07/17 11:19:34;;;;;;;3.67;2.50;;;;;;;;;;5077619;28;20017;-71
2022/07/17 11:22:01;;;;;;;3.58;2.10;;;;;;;;;;5076071;28;20028;-70
2022/07/17 11:24:36;;;;;;;5.72;2.20;;;;;;;;;;5084522;28;20028;-70
2022/07/17 11:27:03;;;;;;;6.78;2.38;;;;;;;;;;5088659;28;20033;-70
2022/07/17 11:29:29;;;;;;;4.65;2.50;;;;;;;;;;5080523;28;20101;-70
2022/07/17 11:31:56;;;;;;;4.68;2.15;;;;;;;;;;5078822;28;20474;-71
2022/07/17 11:34:25;;;;;;;4.70;2.55;;;;;;;;;;5074798;28;20401;-70
2022/07/17 11:36:51;;;;;;;5.40;2.65;;;;;;;;;;5086478;28;20381;-70
2022/07/17 11:39:18;;;;;;;5.05;2.55;;;;;;;;;;5079191;28;20276;-70
2022/07/17 11:41:46;;;;;;;5.53;2.03;;;;;;;;;;5088265;28;20381;-71
2022/07/17 11:44:13;;;;;;;20.50;3.53;;;;;;;;;;5090668;28;20215;-70
2022/07/17 11:46:41;;;;;;;4.20;2.50;;;;;;;;;;5089447;28;20027;-70
2022/07/17 11:49:07;;;;;;;3.03;2.30;;;;;;;;;;5088548;28;20371;-73
2022/07/17 11:51:38;;;;;;;8.10;2.60;;;;;;;;;;5079475;28;20087;-71
2022/07/17 11:54:06;;;;;;;5.95;2.47;;;;;;;;;;5076930;28;20036;-70
2022/07/17 11:56:33;;;;;;;3.80;2.10;;;;;;;;;;5079355;28;20067;-74
2022/07/17 11:59:00;;;;;;;4.45;2.40;;;;;;;;;;5079501;28;20048;-71
2022/07/17 12:01:28;;;;;;;4.10;2.10;;;;;;;;;;5091167;28;20032;-71
2022/07/17 12:03:58;;;;;;;3.65;2.20;;;;;;;;;;5082200;28;20406;-71
2022/07/17 12:06:26;;;;;;;3.97;2.08;;;;;;;;;;5079949;28;20031;-72
2022/07/17 12:08:52;;;;;;;2.20;2.00;;;;;;;;;;5077493;28;20023;-71
2022/07/17 12:11:18;;;;;;;5.97;2.50;;;;;;;;;;5075813;28;20024;-71
2022/07/17 12:13:46;;;;;;;11.30;2.97;;;;;;;;;;5075121;28;20074;-73
2022/07/17 12:16:23;;;;;;;6.20;2.75;;;;;;;;;;5079636;28;20512;-73
2022/07/17 12:19:00;;;;;;;7.10;2.15;;;;;;;;;;5085275;28;20031;-71
2022/07/17 12:21:26;;;;;;;6.10;2.30;;;;;;;;;;5089872;28;20473;-72
2022/07/17 12:24:05;;;;;;;3.22;2.20;;;;;;;;;;5075457;28;20094;-74
2022/07/17 12:26:32;;;;;;;4.78;2.42;;;;;;;;;;5090048;28;20058;-74
2022/07/17 12:28:59;;;;;;;8.40;2.70;;;;;;;;;;5083460;28;20054;-69
2022/07/17 12:31:25;;;;;;;5.50;2.60;;;;;;;;;;5080126;28;20043;-71
2022/07/17 12:33:52;;;;;;;4.63;2.22;;;;;;;;;;5077623;28;20036;-74
2022/07/17 12:36:18;;;;;;;4.05;2.20;;;;;;;;;;5079743;28;20024;-71
2022/07/17 12:38:44;;;;;;;4.90;2.40;;;;;;;;;;5086944;28;20032;-70
2022/07/17 12:41:11;;;;;;;6.78;1.98;;;;;;;;;;5076691;28;20028;-70
2022/07/17 12:43:37;;;;;;;6.50;2.90;;;;;;;;;;5076149;28;20065;-71
2022/07/17 12:46:03;;;;;;;5.20;2.35;;;;;;;;;;5075711;28;20024;-72
2022/07/17 12:48:30;;;;;;;5.22;2.40;;;;;;;;;;5083582;28;20032;-72
2022/07/17 12:50:56;;;;;;;4.82;2.78;;;;;;;;;;5096002;28;20051;-71
2022/07/17 12:53:22;;;;;;;5.55;2.40;;;;;;;;;;5091691;28;20032;-73
2022/07/17 12:55:48;;;;;;;3.20;2.40;;;;;;;;;;5084853;28;20060;-71
2022/07/17 12:58:14;;;;;;;9.75;3.10;;;;;;;;;;5078678;28;20984;-71
2022/07/17 13:00:40;;;;;;;6.65;3.92;;;;;;;;;;5088400;28;20165;-74
2022/07/17 13:03:06;;;;;;;6.95;4.88;;;;;;;;;;5081787;28;20024;-72
2022/07/17 13:05:32;;;;;;;6.15;3.97;;;;;;;;;;5076073;28;20051;-75
2022/07/17 13:07:59;;;;;;;8.27;2.45;;;;;;;;;;5083853;28;20107;-71
2022/07/17 13:10:25;;;;;;;7.47;4.82;;;;;;;;;;5078001;28;20024;-69
2022/07/17 13:12:51;;;;;;;5.63;2.30;;;;;;;;;;5088240;28;20036;-70
2022/07/17 13:15:17;;;;;;;6.30;2.95;;;;;;;;;;5078545;28;20071;-72
2022/07/17 13:17:43;;;;;;;7.75;4.20;;;;;;;;;;5084413;28;20146;-72
2022/07/17 13:20:10;;;;;;;6.72;2.70;;;;;;;;;;5080271;28;20040;-73
2022/07/17 13:22:39;;;;;;;5.25;2.20;;;;;;;;;;5087159;28;20036;-69
2022/07/17 13:25:05;;;;;;;6.28;3.63;;;;;;;;;;5092093;28;20030;-72
2022/07/17 13:27:31;;;;;;;11.88;5.80;;;;;;;;;;5080399;28;20031;-74
2022/07/17 13:29:57;;;;;;;5.55;3.50;;;;;;;;;;5084591;28;20020;-76
2022/07/17 13:32:24;;;;;;;9.13;2.75;;;;;;;;;;5083515;28;20024;-73
2022/07/17 13:34:50;;;;;;;9.63;6.47;;;;;;;;;;5094241;28;20428;-70
2022/07/17 13:37:16;;;;;;;3.70;2.42;;;;;;;;;;5083878;28;20020;-70
2022/07/17 13:39:42;;;;;;;4.78;2.50;;;;;;;;;;5090030;28;20439;-70
2022/07/17 13:42:08;;;;;;;5.53;1.90;;;;;;;;;;5085805;28;20367;-70
2022/07/17 13:44:34;;;;;;;5.00;1.98;;;;;;;;;;5093267;28;20027;-70
2022/07/17 13:47:00;;;;;;;3.28;1.92;;;;;;;;;;5092551;28;20016;-71
2022/07/17 13:49:27;;;;;;;2.08;1.77;;;;;;;;;;5083439;28;20016;-70
2022/07/17 13:51:53;;;;;;;9.73;2.20;;;;;;;;;;5088370;28;20040;-69
2022/07/17 13:54:19;;;;;;;4.68;1.85;;;;;;;;;;5080776;28;20072;-71
2022/07/17 13:56:45;;;;;;;4.10;1.92;;;;;;;;;;5079991;28;20525;-71
2022/07/17 13:59:11;;;;;;;3.75;2.00;;;;;;;;;;5080429;28;20504;-70
2022/07/17 14:01:37;;;;;;;5.25;2.63;;;;;;;;;;5086278;28;20486;-71
2022/07/17 14:04:04;;;;;;;4.10;2.00;;;;;;;;;;5076046;28;20033;-71
2022/07/17 14:06:30;;;;;;;5.07;2.00;;;;;;;;;;5085239;28;20059;-71
2022/07/17 14:08:56;;;;;;;9.55;2.80;;;;;;;;;;5089864;28;20474;-70
2022/07/17 14:11:22;;;;;;;6.40;2.30;;;;;;;;;;5084625;28;20388;-70
2022/07/17 14:13:48;;;;;;;4.30;2.10;;;;;;;;;;5087581;28;20842;-69
2022/07/17 14:16:14;;;;;;;2.55;1.90;;;;;;;;;;5095422;28;20104;-70
2022/07/17 14:18:57;;;;;;;3.05;1.80;;;;;;;;;;5091164;28;20023;-70
2022/07/17 14:21:24;;;;;;;18.55;7.10;;;;;;;;;;5076908;28;20035;-70
2022/07/17 14:23:50;;;;;;;2.97;1.90;;;;;;;;;;5091268;28;20485;-70
2022/07/17 14:26:16;;;;;;;16.48;4.35;;;;;;;;;;5088289;28;20104;-70
2022/07/17 14:28:42;;;;;;;4.93;2.40;;;;;;;;;;5084207;28;20024;-70
2022/07/17 14:31:08;;;;;;;10.60;2.53;;;;;;;;;;5076825;28;20024;-70
2022/07/17 14:33:34;;;;;;;1.92;1.70;;;;;;;;;;5086355;28;20036;-70
2022/07/17 14:36:00;;;;;;;6.10;2.03;;;;;;;;;;5086118;28;20055;-70
2022/07/17 14:38:26;;;;;;;5.47;1.70;;;;;;;;;;5090254;28;20022;-70